Wednesday, June 20, 2018, 3:52 AM EDT
Back to Local

KGSB, Seymour-johnson Air Force Base

Location: Goldsboro, NC, United States Lat: 35.333
Local Time: 3:52 AM EDT ( 7:52 GMT) Lon: -77.967
Time Zone: US/Eastern Elev: 108 ft

Show me the last for .
Show Coded

Time T Td Feel RH Dir Speed Gust Alt SLP Vis Weather Sky Remarks
2018-06-20 02:56 77 71 81 82 170° 3 - 29.85 29.85 0 CLR None
2018-06-20 01:56 78 71 82 79 40° 5 - 29.87 29.88 10 CLR 6-hr Min Temp (2am): 78.1°F
6-hr Max Temp (2am): 94.3°F
2018-06-20 00:56 80 71 84 73 60° 6 - 29.87 29.88 10 CLR 24-hr Min Temp (1am): 75.0°F
24-hr Max Temp (1am): 100.6°F
2018-06-19 23:56 84 74 91 71 20° 15 23 29.87 29.88 10 SCT065 None
2018-06-19 22:56 85 74 92 68 - Calm - 29.85 29.85 10 CLR None
2018-06-19 21:56 86 74 94 67 240° 7 - 29.84 29.84 10 CLR None
2018-06-19 20:56 89 72 96 56 220° 7 - 29.83 29.83 10 CLR None
2018-06-19 19:56 94 70 102 45 290° 5 - 29.82 29.83 10 CLR 6-hr Min Temp (8pm): 94.5°F
6-hr Max Temp (8pm): 100.6°F
2018-06-19 18:56 97 68 - 38 280° 9 - 29.81 29.81 10 CLR None
2018-06-19 17:56 99 66 - 33 270° 9 - 29.80 29.80 10 CLR None
2018-06-19 16:56 100 65 - 32 250° 15 20 29.82 29.83 10 CLR None
2018-06-19 15:56 100 65 - 31 280° 10 22 29.83 29.83 10 CLR None
2018-06-19 14:56 99 69 - 38 260° 13 18 29.85 29.85 10 CLR None
2018-06-19 13:56 98 70 - 39 250° 10 - 29.87 29.88 10 FEW130 FEW180 FEW200 6-hr Min Temp (2pm): 79.9°F
6-hr Max Temp (2pm): 98.4°F
2018-06-19 12:56 96 72 106 45 280° 8 - 29.89 29.89 10 FEW150 FEW180 SCT210 None
2018-06-19 11:56 95 73 106 49 250° 9 - 29.90 29.90 10 CLR None
2018-06-19 10:56 93 72 102 51 290° 7 - 29.91 29.91 10 CLR None
2018-06-19 09:56 89 74 98 60 260° 6 - 29.93 29.93 10 CLR None
2018-06-19 08:56 85 73 91 67 270° 9 - 29.94 29.94 10 CLR None
2018-06-19 07:56 80 72 84 77 260° 9 - 29.93 29.93 10 CLR 6-hr Min Temp (8am): 75.0°F
6-hr Max Temp (8am): 79.7°F
2018-06-19 06:56 76 72 81 86 250° 7 - 29.94 29.94 10 CLR None
2018-06-19 05:56 76 72 80 88 240° 8 - 29.94 29.94 10 CLR None
2018-06-19 04:56 76 72 80 87 240° 7 - 29.93 29.93 10 CLR None
2018-06-19 03:56 75 71 79 88 250° 8 - 29.93 29.93 10 CLR None

Support USWX by starting your Amazon purchase here.